sensor_id;sensor_type;location;lat;lon;timestamp;P1;durP1;ratioP1;P2;durP2;ratioP2
71572;SDS011;59408;51.032;9.410;2023-02-16T00:01:49;46.50;;;16.73;;
71572;SDS011;59408;51.032;9.410;2023-02-16T00:04:17;49.75;;;17.52;;
71572;SDS011;59408;51.032;9.410;2023-02-16T00:06:45;43.88;;;16.45;;
71572;SDS011;59408;51.032;9.410;2023-02-16T00:09:12;48.70;;;16.58;;
71572;SDS011;59408;51.032;9.410;2023-02-16T00:11:41;46.13;;;17.00;;
71572;SDS011;59408;51.032;9.410;2023-02-16T00:14:08;45.13;;;16.37;;
71572;SDS011;59408;51.032;9.410;2023-02-16T00:16:36;45.08;;;15.98;;
71572;SDS011;59408;51.032;9.410;2023-02-16T00:19:12;47.47;;;17.77;;
71572;SDS011;59408;51.032;9.410;2023-02-16T00:21:45;45.05;;;16.75;;
71572;SDS011;59408;51.032;9.410;2023-02-16T00:24:12;51.10;;;16.17;;
71572;SDS011;59408;51.032;9.410;2023-02-16T00:26:41;46.73;;;17.30;;
71572;SDS011;59408;51.032;9.410;2023-02-16T00:29:10;45.45;;;16.98;;
71572;SDS011;59408;51.032;9.410;2023-02-16T00:31:42;49.33;;;17.20;;
71572;SDS011;59408;51.032;9.410;2023-02-16T00:34:17;45.55;;;16.02;;
71572;SDS011;59408;51.032;9.410;2023-02-16T00:36:52;45.80;;;17.70;;
71572;SDS011;59408;51.032;9.410;2023-02-16T00:39:20;48.43;;;16.70;;
71572;SDS011;59408;51.032;9.410;2023-02-16T00:41:48;49.53;;;16.75;;
71572;SDS011;59408;51.032;9.410;2023-02-16T00:44:15;45.60;;;15.93;;
71572;SDS011;59408;51.032;9.410;2023-02-16T00:46:43;46.15;;;16.40;;
71572;SDS011;59408;51.032;9.410;2023-02-16T00:49:11;51.17;;;16.98;;
71572;SDS011;59408;51.032;9.410;2023-02-16T00:51:39;44.33;;;16.07;;
71572;SDS011;59408;51.032;9.410;2023-02-16T00:54:06;44.20;;;16.33;;
71572;SDS011;59408;51.032;9.410;2023-02-16T00:56:32;45.45;;;16.80;;
71572;SDS011;59408;51.032;9.410;2023-02-16T00:59:01;42.45;;;17.38;;
71572;SDS011;59408;51.032;9.410;2023-02-16T01:01:30;42.35;;;15.80;;
71572;SDS011;59408;51.032;9.410;2023-02-16T01:03:58;44.60;;;16.70;;
71572;SDS011;59408;51.032;9.410;2023-02-16T01:06:27;45.47;;;17.15;;
71572;SDS011;59408;51.032;9.410;2023-02-16T01:08:54;42.75;;;16.38;;
71572;SDS011;59408;51.032;9.410;2023-02-16T01:11:26;41.10;;;15.38;;
71572;SDS011;59408;51.032;9.410;2023-02-16T01:13:53;40.53;;;15.55;;
71572;SDS011;59408;51.032;9.410;2023-02-16T01:16:23;45.47;;;16.80;;
71572;SDS011;59408;51.032;9.410;2023-02-16T01:18:52;43.70;;;16.25;;
71572;SDS011;59408;51.032;9.410;2023-02-16T01:21:19;44.33;;;17.00;;
71572;SDS011;59408;51.032;9.410;2023-02-16T01:23:46;42.17;;;15.18;;
71572;SDS011;59408;51.032;9.410;2023-02-16T01:26:14;41.40;;;16.35;;
71572;SDS011;59408;51.032;9.410;2023-02-16T01:28:43;40.40;;;16.60;;
71572;SDS011;59408;51.032;9.410;2023-02-16T01:31:10;44.90;;;15.93;;
71572;SDS011;59408;51.032;9.410;2023-02-16T01:33:39;42.30;;;16.58;;
71572;SDS011;59408;51.032;9.410;2023-02-16T01:36:10;43.92;;;16.42;;
71572;SDS011;59408;51.032;9.410;2023-02-16T01:38:47;43.50;;;16.10;;
71572;SDS011;59408;51.032;9.410;2023-02-16T01:41:16;41.57;;;15.63;;
71572;SDS011;59408;51.032;9.410;2023-02-16T01:43:51;44.05;;;17.10;;
71572;SDS011;59408;51.032;9.410;2023-02-16T01:46:22;43.17;;;16.48;;
71572;SDS011;59408;51.032;9.410;2023-02-16T01:48:56;45.83;;;16.55;;
71572;SDS011;59408;51.032;9.410;2023-02-16T01:51:23;44.45;;;17.10;;
71572;SDS011;59408;51.032;9.410;2023-02-16T01:53:54;46.70;;;17.53;;
71572;SDS011;59408;51.032;9.410;2023-02-16T01:56:30;42.60;;;16.63;;
71572;SDS011;59408;51.032;9.410;2023-02-16T01:59:01;42.45;;;15.32;;
71572;SDS011;59408;51.032;9.410;2023-02-16T02:01:36;42.08;;;15.68;;
71572;SDS011;59408;51.032;9.410;2023-02-16T02:04:12;40.15;;;15.65;;
71572;SDS011;59408;51.032;9.410;2023-02-16T02:06:52;43.87;;;15.10;;
71572;SDS011;59408;51.032;9.410;2023-02-16T02:09:19;42.65;;;15.82;;
71572;SDS011;59408;51.032;9.410;2023-02-16T02:11:53;43.50;;;16.42;;
71572;SDS011;59408;51.032;9.410;2023-02-16T02:14:26;43.30;;;16.08;;
71572;SDS011;59408;51.032;9.410;2023-02-16T02:16:57;42.83;;;17.13;;
71572;SDS011;59408;51.032;9.410;2023-02-16T02:19:27;42.40;;;16.10;;
71572;SDS011;59408;51.032;9.410;2023-02-16T02:22:05;42.72;;;15.93;;
71572;SDS011;59408;51.032;9.410;2023-02-16T02:25:01;42.65;;;16.17;;
71572;SDS011;59408;51.032;9.410;2023-02-16T02:27:59;45.92;;;15.48;;
71572;SDS011;59408;51.032;9.410;2023-02-16T02:30:36;42.45;;;14.85;;
71572;SDS011;59408;51.032;9.410;2023-02-16T02:33:19;46.53;;;15.87;;
71572;SDS011;59408;51.032;9.410;2023-02-16T02:36:02;46.85;;;17.27;;
71572;SDS011;59408;51.032;9.410;2023-02-16T02:38:42;43.85;;;16.23;;
71572;SDS011;59408;51.032;9.410;2023-02-16T02:41:19;41.47;;;14.88;;
71572;SDS011;59408;51.032;9.410;2023-02-16T02:43:55;39.97;;;16.00;;
71572;SDS011;59408;51.032;9.410;2023-02-16T02:46:25;41.37;;;16.10;;
71572;SDS011;59408;51.032;9.410;2023-02-16T02:48:55;47.00;;;17.45;;
71572;SDS011;59408;51.032;9.410;2023-02-16T02:51:22;40.13;;;15.70;;
71572;SDS011;59408;51.032;9.410;2023-02-16T02:53:49;43.00;;;15.65;;
71572;SDS011;59408;51.032;9.410;2023-02-16T02:56:18;44.03;;;17.38;;
71572;SDS011;59408;51.032;9.410;2023-02-16T02:58:45;44.83;;;17.57;;
71572;SDS011;59408;51.032;9.410;2023-02-16T03:01:17;41.17;;;16.52;;
71572;SDS011;59408;51.032;9.410;2023-02-16T03:03:46;42.67;;;16.08;;
71572;SDS011;59408;51.032;9.410;2023-02-16T03:06:16;43.10;;;16.40;;
71572;SDS011;59408;51.032;9.410;2023-02-16T03:08:49;41.45;;;15.52;;
71572;SDS011;59408;51.032;9.410;2023-02-16T03:11:20;41.07;;;15.07;;
71572;SDS011;59408;51.032;9.410;2023-02-16T03:13:49;40.60;;;14.88;;
71572;SDS011;59408;51.032;9.410;2023-02-16T03:16:22;45.60;;;16.42;;
71572;SDS011;59408;51.032;9.410;2023-02-16T03:18:52;41.00;;;15.20;;
71572;SDS011;59408;51.032;9.410;2023-02-16T03:21:22;43.38;;;16.67;;
71572;SDS011;59408;51.032;9.410;2023-02-16T03:23:51;42.53;;;16.90;;
71572;SDS011;59408;51.032;9.410;2023-02-16T03:26:19;48.70;;;17.00;;
71572;SDS011;59408;51.032;9.410;2023-02-16T03:28:47;46.97;;;17.33;;
71572;SDS011;59408;51.032;9.410;2023-02-16T03:31:17;48.83;;;17.60;;
71572;SDS011;59408;51.032;9.410;2023-02-16T03:33:48;56.85;;;20.40;;
71572;SDS011;59408;51.032;9.410;2023-02-16T03:36:16;42.23;;;15.43;;
71572;SDS011;59408;51.032;9.410;2023-02-16T03:38:43;48.50;;;15.93;;
71572;SDS011;59408;51.032;9.410;2023-02-16T03:41:10;41.13;;;15.30;;
71572;SDS011;59408;51.032;9.410;2023-02-16T03:43:36;41.88;;;13.90;;
71572;SDS011;59408;51.032;9.410;2023-02-16T03:46:03;40.50;;;15.43;;
71572;SDS011;59408;51.032;9.410;2023-02-16T03:48:30;40.67;;;15.13;;
71572;SDS011;59408;51.032;9.410;2023-02-16T03:50:58;44.95;;;17.02;;
71572;SDS011;59408;51.032;9.410;2023-02-16T03:53:24;41.15;;;16.25;;
71572;SDS011;59408;51.032;9.410;2023-02-16T03:55:51;42.58;;;15.85;;
71572;SDS011;59408;51.032;9.410;2023-02-16T03:58:18;44.35;;;16.80;;
71572;SDS011;59408;51.032;9.410;2023-02-16T04:00:47;43.03;;;15.83;;
71572;SDS011;59408;51.032;9.410;2023-02-16T04:03:14;46.78;;;15.68;;
71572;SDS011;59408;51.032;9.410;2023-02-16T04:05:41;44.13;;;15.75;;
71572;SDS011;59408;51.032;9.410;2023-02-16T04:08:10;50.38;;;16.65;;
71572;SDS011;59408;51.032;9.410;2023-02-16T04:10:37;43.30;;;16.73;;
71572;SDS011;59408;51.032;9.410;2023-02-16T04:13:04;43.03;;;15.30;;
71572;SDS011;59408;51.032;9.410;2023-02-16T04:15:31;42.33;;;15.73;;
71572;SDS011;59408;51.032;9.410;2023-02-16T04:17:58;44.67;;;15.75;;
71572;SDS011;59408;51.032;9.410;2023-02-16T04:20:26;42.58;;;15.05;;
71572;SDS011;59408;51.032;9.410;2023-02-16T04:22:53;46.90;;;16.30;;
71572;SDS011;59408;51.032;9.410;2023-02-16T04:25:22;44.87;;;15.53;;
71572;SDS011;59408;51.032;9.410;2023-02-16T04:27:49;42.13;;;15.27;;
71572;SDS011;59408;51.032;9.410;2023-02-16T04:30:17;39.83;;;15.35;;
71572;SDS011;59408;51.032;9.410;2023-02-16T04:32:46;40.38;;;15.40;;
71572;SDS011;59408;51.032;9.410;2023-02-16T04:35:13;38.38;;;14.45;;
71572;SDS011;59408;51.032;9.410;2023-02-16T04:37:40;40.60;;;14.47;;
71572;SDS011;59408;51.032;9.410;2023-02-16T04:40:08;41.60;;;13.80;;
71572;SDS011;59408;51.032;9.410;2023-02-16T04:42:37;39.63;;;15.05;;
71572;SDS011;59408;51.032;9.410;2023-02-16T04:45:04;38.33;;;13.45;;
71572;SDS011;59408;51.032;9.410;2023-02-16T04:47:31;36.80;;;14.00;;
71572;SDS011;59408;51.032;9.410;2023-02-16T04:49:58;37.43;;;13.37;;
71572;SDS011;59408;51.032;9.410;2023-02-16T04:52:24;41.00;;;14.82;;
71572;SDS011;59408;51.032;9.410;2023-02-16T04:54:51;44.47;;;15.93;;
71572;SDS011;59408;51.032;9.410;2023-02-16T04:57:17;45.33;;;16.00;;
71572;SDS011;59408;51.032;9.410;2023-02-16T04:59:45;42.40;;;13.85;;
71572;SDS011;59408;51.032;9.410;2023-02-16T05:02:12;39.60;;;14.40;;
71572;SDS011;59408;51.032;9.410;2023-02-16T05:04:39;39.58;;;14.75;;
71572;SDS011;59408;51.032;9.410;2023-02-16T05:07:05;41.42;;;14.88;;
71572;SDS011;59408;51.032;9.410;2023-02-16T05:09:32;47.00;;;15.85;;
71572;SDS011;59408;51.032;9.410;2023-02-16T05:11:59;40.55;;;14.70;;
71572;SDS011;59408;51.032;9.410;2023-02-16T05:14:26;42.87;;;13.90;;
71572;SDS011;59408;51.032;9.410;2023-02-16T05:16:57;42.55;;;15.30;;
71572;SDS011;59408;51.032;9.410;2023-02-16T05:19:24;38.92;;;14.77;;
71572;SDS011;59408;51.032;9.410;2023-02-16T05:21:51;38.90;;;14.43;;
71572;SDS011;59408;51.032;9.410;2023-02-16T05:24:17;40.42;;;15.25;;
71572;SDS011;59408;51.032;9.410;2023-02-16T05:26:44;43.20;;;14.33;;
71572;SDS011;59408;51.032;9.410;2023-02-16T05:29:10;41.05;;;14.77;;
71572;SDS011;59408;51.032;9.410;2023-02-16T05:31:37;41.30;;;14.43;;
71572;SDS011;59408;51.032;9.410;2023-02-16T05:34:05;39.80;;;15.50;;
71572;SDS011;59408;51.032;9.410;2023-02-16T05:36:32;40.85;;;15.65;;
71572;SDS011;59408;51.032;9.410;2023-02-16T05:38:58;40.97;;;14.17;;
71572;SDS011;59408;51.032;9.410;2023-02-16T05:41:25;39.75;;;14.38;;
71572;SDS011;59408;51.032;9.410;2023-02-16T05:43:52;37.75;;;14.43;;
71572;SDS011;59408;51.032;9.410;2023-02-16T05:46:20;38.67;;;13.70;;
71572;SDS011;59408;51.032;9.410;2023-02-16T05:48:48;38.22;;;13.98;;
71572;SDS011;59408;51.032;9.410;2023-02-16T05:51:17;38.37;;;14.57;;
71572;SDS011;59408;51.032;9.410;2023-02-16T05:53:44;42.25;;;15.30;;
71572;SDS011;59408;51.032;9.410;2023-02-16T05:56:11;39.08;;;14.57;;
71572;SDS011;59408;51.032;9.410;2023-02-16T05:58:38;37.40;;;14.57;;
71572;SDS011;59408;51.032;9.410;2023-02-16T06:01:05;36.50;;;13.95;;
71572;SDS011;59408;51.032;9.410;2023-02-16T06:03:32;41.50;;;14.20;;
71572;SDS011;59408;51.032;9.410;2023-02-16T06:05:59;39.40;;;14.38;;
71572;SDS011;59408;51.032;9.410;2023-02-16T06:08:28;42.75;;;14.95;;
71572;SDS011;59408;51.032;9.410;2023-02-16T06:10:56;44.17;;;15.13;;
71572;SDS011;59408;51.032;9.410;2023-02-16T06:13:23;42.53;;;14.27;;
71572;SDS011;59408;51.032;9.410;2023-02-16T06:15:50;41.07;;;14.53;;
71572;SDS011;59408;51.032;9.410;2023-02-16T06:18:17;49.28;;;16.20;;
71572;SDS011;59408;51.032;9.410;2023-02-16T06:20:44;44.03;;;16.40;;
71572;SDS011;59408;51.032;9.410;2023-02-16T06:23:11;44.88;;;15.30;;
71572;SDS011;59408;51.032;9.410;2023-02-16T06:25:41;42.58;;;15.02;;
71572;SDS011;59408;51.032;9.410;2023-02-16T06:28:08;44.13;;;16.27;;
71572;SDS011;59408;51.032;9.410;2023-02-16T06:30:35;43.28;;;16.17;;
71572;SDS011;59408;51.032;9.410;2023-02-16T06:33:02;42.83;;;15.70;;
71572;SDS011;59408;51.032;9.410;2023-02-16T06:35:29;47.72;;;16.42;;
71572;SDS011;59408;51.032;9.410;2023-02-16T06:37:56;46.10;;;16.55;;
71572;SDS011;59408;51.032;9.410;2023-02-16T06:40:22;51.70;;;17.03;;
71572;SDS011;59408;51.032;9.410;2023-02-16T06:42:50;41.33;;;15.43;;
71572;SDS011;59408;51.032;9.410;2023-02-16T06:45:17;46.80;;;15.95;;
71572;SDS011;59408;51.032;9.410;2023-02-16T06:47:44;42.25;;;16.67;;
71572;SDS011;59408;51.032;9.410;2023-02-16T06:50:10;44.50;;;16.42;;
71572;SDS011;59408;51.032;9.410;2023-02-16T06:52:37;49.60;;;16.17;;
71572;SDS011;59408;51.032;9.410;2023-02-16T06:55:04;46.30;;;15.88;;
71572;SDS011;59408;51.032;9.410;2023-02-16T06:57:30;45.42;;;16.83;;
71572;SDS011;59408;51.032;9.410;2023-02-16T06:59:59;46.75;;;15.25;;
71572;SDS011;59408;51.032;9.410;2023-02-16T07:02:25;38.25;;;14.77;;
71572;SDS011;59408;51.032;9.410;2023-02-16T07:04:52;45.13;;;15.73;;
71572;SDS011;59408;51.032;9.410;2023-02-16T07:07:18;48.05;;;16.48;;
71572;SDS011;59408;51.032;9.410;2023-02-16T07:09:45;46.65;;;16.63;;
71572;SDS011;59408;51.032;9.410;2023-02-16T07:12:12;42.72;;;15.65;;
71572;SDS011;59408;51.032;9.410;2023-02-16T07:14:39;46.17;;;16.25;;
71572;SDS011;59408;51.032;9.410;2023-02-16T07:17:09;43.17;;;15.27;;
71572;SDS011;59408;51.032;9.410;2023-02-16T07:19:36;40.97;;;15.35;;
71572;SDS011;59408;51.032;9.410;2023-02-16T07:22:03;40.25;;;14.27;;
71572;SDS011;59408;51.032;9.410;2023-02-16T07:24:29;45.95;;;15.85;;
71572;SDS011;59408;51.032;9.410;2023-02-16T07:26:56;40.70;;;15.23;;
71572;SDS011;59408;51.032;9.410;2023-02-16T07:29:26;44.13;;;15.03;;
71572;SDS011;59408;51.032;9.410;2023-02-16T07:31:52;46.75;;;15.52;;
71572;SDS011;59408;51.032;9.410;2023-02-16T07:34:20;40.60;;;13.73;;
71572;SDS011;59408;51.032;9.410;2023-02-16T07:36:47;45.38;;;16.38;;
71572;SDS011;59408;51.032;9.410;2023-02-16T07:39:13;43.38;;;15.38;;
71572;SDS011;59408;51.032;9.410;2023-02-16T07:41:40;41.47;;;15.33;;
71572;SDS011;59408;51.032;9.410;2023-02-16T07:44:07;44.45;;;16.08;;
71572;SDS011;59408;51.032;9.410;2023-02-16T07:46:34;42.80;;;15.68;;
71572;SDS011;59408;51.032;9.410;2023-02-16T07:49:01;42.97;;;15.70;;
71572;SDS011;59408;51.032;9.410;2023-02-16T07:51:29;43.30;;;15.73;;
71572;SDS011;59408;51.032;9.410;2023-02-16T07:53:57;43.97;;;15.97;;
71572;SDS011;59408;51.032;9.410;2023-02-16T07:56:25;48.70;;;16.42;;
71572;SDS011;59408;51.032;9.410;2023-02-16T07:58:54;45.58;;;16.35;;
71572;SDS011;59408;51.032;9.410;2023-02-16T08:01:22;43.05;;;16.10;;
71572;SDS011;59408;51.032;9.410;2023-02-16T08:03:50;36.83;;;14.35;;
71572;SDS011;59408;51.032;9.410;2023-02-16T08:06:17;40.70;;;15.13;;
71572;SDS011;59408;51.032;9.410;2023-02-16T08:08:45;45.05;;;15.93;;
71572;SDS011;59408;51.032;9.410;2023-02-16T08:11:13;45.42;;;16.50;;
71572;SDS011;59408;51.032;9.410;2023-02-16T08:13:41;42.08;;;15.45;;
71572;SDS011;59408;51.032;9.410;2023-02-16T08:16:08;43.58;;;15.77;;
71572;SDS011;59408;51.032;9.410;2023-02-16T08:18:35;40.00;;;16.37;;
71572;SDS011;59408;51.032;9.410;2023-02-16T08:21:06;44.55;;;17.42;;
71572;SDS011;59408;51.032;9.410;2023-02-16T08:23:33;46.53;;;18.10;;
71572;SDS011;59408;51.032;9.410;2023-02-16T08:26:07;43.70;;;16.52;;
71572;SDS011;59408;51.032;9.410;2023-02-16T08:28:34;41.10;;;16.10;;
71572;SDS011;59408;51.032;9.410;2023-02-16T08:31:01;41.63;;;15.40;;
71572;SDS011;59408;51.032;9.410;2023-02-16T08:33:28;45.92;;;16.80;;
71572;SDS011;59408;51.032;9.410;2023-02-16T08:35:54;40.92;;;15.13;;
71572;SDS011;59408;51.032;9.410;2023-02-16T08:38:21;44.22;;;16.17;;
71572;SDS011;59408;51.032;9.410;2023-02-16T08:40:48;44.35;;;15.68;;
71572;SDS011;59408;51.032;9.410;2023-02-16T08:43:16;40.73;;;15.83;;
71572;SDS011;59408;51.032;9.410;2023-02-16T08:45:43;46.15;;;16.70;;
71572;SDS011;59408;51.032;9.410;2023-02-16T08:48:11;41.83;;;16.52;;
71572;SDS011;59408;51.032;9.410;2023-02-16T08:50:41;40.20;;;15.98;;
71572;SDS011;59408;51.032;9.410;2023-02-16T08:53:08;40.58;;;15.40;;
71572;SDS011;59408;51.032;9.410;2023-02-16T08:55:35;40.33;;;15.77;;
71572;SDS011;59408;51.032;9.410;2023-02-16T08:58:02;41.38;;;16.80;;
71572;SDS011;59408;51.032;9.410;2023-02-16T09:00:30;35.95;;;15.52;;
71572;SDS011;59408;51.032;9.410;2023-02-16T09:02:57;45.53;;;16.52;;
71572;SDS011;59408;51.032;9.410;2023-02-16T09:05:24;41.97;;;15.18;;
71572;SDS011;59408;51.032;9.410;2023-02-16T09:07:50;44.00;;;15.53;;
71572;SDS011;59408;51.032;9.410;2023-02-16T09:10:17;39.33;;;14.80;;
71572;SDS011;59408;51.032;9.410;2023-02-16T09:12:44;43.92;;;15.57;;
71572;SDS011;59408;51.032;9.410;2023-02-16T09:15:10;39.67;;;15.55;;
71572;SDS011;59408;51.032;9.410;2023-02-16T09:17:38;42.53;;;16.63;;
71572;SDS011;59408;51.032;9.410;2023-02-16T09:20:05;41.23;;;15.37;;
71572;SDS011;59408;51.032;9.410;2023-02-16T09:22:33;39.13;;;15.52;;
71572;SDS011;59408;51.032;9.410;2023-02-16T09:24:59;38.13;;;15.48;;
71572;SDS011;59408;51.032;9.410;2023-02-16T09:27:26;40.35;;;16.50;;
71572;SDS011;59408;51.032;9.410;2023-02-16T09:29:52;37.40;;;15.13;;
71572;SDS011;59408;51.032;9.410;2023-02-16T09:32:19;44.33;;;18.03;;
71572;SDS011;59408;51.032;9.410;2023-02-16T09:34:47;38.70;;;16.15;;
71572;SDS011;59408;51.032;9.410;2023-02-16T09:37:14;39.30;;;15.27;;
71572;SDS011;59408;51.032;9.410;2023-02-16T09:39:40;40.00;;;16.50;;
71572;SDS011;59408;51.032;9.410;2023-02-16T09:42:10;37.63;;;14.80;;
71572;SDS011;59408;51.032;9.410;2023-02-16T09:44:49;36.13;;;15.40;;
71572;SDS011;59408;51.032;9.410;2023-02-16T09:47:21;38.35;;;15.10;;
71572;SDS011;59408;51.032;9.410;2023-02-16T09:49:52;37.47;;;16.13;;
71572;SDS011;59408;51.032;9.410;2023-02-16T09:52:20;35.35;;;14.27;;
71572;SDS011;59408;51.032;9.410;2023-02-16T09:54:52;38.90;;;16.23;;
71572;SDS011;59408;51.032;9.410;2023-02-16T09:57:21;38.40;;;15.17;;
71572;SDS011;59408;51.032;9.410;2023-02-16T10:00:04;36.53;;;15.27;;
71572;SDS011;59408;51.032;9.410;2023-02-16T10:02:42;34.83;;;14.88;;
71572;SDS011;59408;51.032;9.410;2023-02-16T10:05:18;40.22;;;17.98;;
71572;SDS011;59408;51.032;9.410;2023-02-16T10:07:56;36.25;;;15.18;;
71572;SDS011;59408;51.032;9.410;2023-02-16T10:10:30;40.50;;;16.13;;
71572;SDS011;59408;51.032;9.410;2023-02-16T10:13:03;38.50;;;16.52;;
71572;SDS011;59408;51.032;9.410;2023-02-16T10:15:35;33.83;;;15.65;;
71572;SDS011;59408;51.032;9.410;2023-02-16T10:18:07;33.53;;;14.88;;
71572;SDS011;59408;51.032;9.410;2023-02-16T10:20:45;32.03;;;14.70;;
71572;SDS011;59408;51.032;9.410;2023-02-16T10:23:17;32.53;;;13.50;;
71572;SDS011;59408;51.032;9.410;2023-02-16T10:25:55;33.58;;;15.68;;
71572;SDS011;59408;51.032;9.410;2023-02-16T10:28:27;29.90;;;14.20;;
71572;SDS011;59408;51.032;9.410;2023-02-16T10:31:01;33.05;;;15.05;;
71572;SDS011;59408;51.032;9.410;2023-02-16T10:33:37;31.95;;;14.95;;
71572;SDS011;59408;51.032;9.410;2023-02-16T10:36:12;33.67;;;15.60;;
71572;SDS011;59408;51.032;9.410;2023-02-16T10:38:42;31.17;;;14.10;;
71572;SDS011;59408;51.032;9.410;2023-02-16T10:41:16;28.98;;;14.55;;
71572;SDS011;59408;51.032;9.410;2023-02-16T10:43:54;32.70;;;14.48;;
71572;SDS011;59408;51.032;9.410;2023-02-16T10:46:28;31.27;;;14.70;;
71572;SDS011;59408;51.032;9.410;2023-02-16T10:48:57;33.07;;;15.47;;
71572;SDS011;59408;51.032;9.410;2023-02-16T10:51:27;31.75;;;14.88;;
71572;SDS011;59408;51.032;9.410;2023-02-16T10:54:00;31.25;;;13.70;;
71572;SDS011;59408;51.032;9.410;2023-02-16T10:56:37;35.67;;;14.95;;
71572;SDS011;59408;51.032;9.410;2023-02-16T10:59:13;34.25;;;13.70;;
71572;SDS011;59408;51.032;9.410;2023-02-16T11:01:41;31.43;;;15.33;;
71572;SDS011;59408;51.032;9.410;2023-02-16T11:07:01;32.65;;;15.43;;
71572;SDS011;59408;51.032;9.410;2023-02-16T11:09:29;34.10;;;15.77;;
71572;SDS011;59408;51.032;9.410;2023-02-16T11:11:56;29.80;;;13.85;;
71572;SDS011;59408;51.032;9.410;2023-02-16T11:14:23;32.90;;;15.63;;
71572;SDS011;59408;51.032;9.410;2023-02-16T11:17:00;31.85;;;14.60;;
71572;SDS011;59408;51.032;9.410;2023-02-16T11:19:29;31.55;;;14.93;;
71572;SDS011;59408;51.032;9.410;2023-02-16T11:21:56;33.78;;;15.55;;
71572;SDS011;59408;51.032;9.410;2023-02-16T11:24:25;35.03;;;16.70;;
71572;SDS011;59408;51.032;9.410;2023-02-16T11:26:59;29.97;;;14.23;;
71572;SDS011;59408;51.032;9.410;2023-02-16T11:29:29;33.08;;;14.52;;
71572;SDS011;59408;51.032;9.410;2023-02-16T11:31:56;30.13;;;14.27;;
71572;SDS011;59408;51.032;9.410;2023-02-16T11:34:28;31.02;;;14.25;;
71572;SDS011;59408;51.032;9.410;2023-02-16T11:37:02;30.92;;;14.88;;
71572;SDS011;59408;51.032;9.410;2023-02-16T11:39:34;34.47;;;15.90;;
71572;SDS011;59408;51.032;9.410;2023-02-16T11:42:04;35.10;;;15.50;;
71572;SDS011;59408;51.032;9.410;2023-02-16T11:44:34;33.78;;;15.57;;
71572;SDS011;59408;51.032;9.410;2023-02-16T11:47:04;31.73;;;14.80;;
71572;SDS011;59408;51.032;9.410;2023-02-16T11:49:33;28.92;;;13.93;;
71572;SDS011;59408;51.032;9.410;2023-02-16T11:52:16;29.27;;;14.03;;
71572;SDS011;59408;51.032;9.410;2023-02-16T11:54:48;33.13;;;14.80;;
71572;SDS011;59408;51.032;9.410;2023-02-16T11:57:21;31.13;;;14.55;;
71572;SDS011;59408;51.032;9.410;2023-02-16T11:59:49;31.90;;;13.68;;
71572;SDS011;59408;51.032;9.410;2023-02-16T12:02:29;31.85;;;14.23;;
71572;SDS011;59408;51.032;9.410;2023-02-16T12:05:12;34.30;;;14.80;;
71572;SDS011;59408;51.032;9.410;2023-02-16T12:07:49;28.25;;;13.15;;
71572;SDS011;59408;51.032;9.410;2023-02-16T12:10:33;37.03;;;15.52;;
71572;SDS011;59408;51.032;9.410;2023-02-16T12:13:09;32.88;;;14.10;;
71572;SDS011;59408;51.032;9.410;2023-02-16T12:15:44;30.15;;;14.00;;
71572;SDS011;59408;51.032;9.410;2023-02-16T12:18:18;27.60;;;13.60;;
71572;SDS011;59408;51.032;9.410;2023-02-16T12:20:53;30.60;;;14.20;;
71572;SDS011;59408;51.032;9.410;2023-02-16T12:23:27;33.67;;;14.40;;
71572;SDS011;59408;51.032;9.410;2023-02-16T12:26:17;30.90;;;14.15;;
71572;SDS011;59408;51.032;9.410;2023-02-16T12:29:02;26.58;;;13.73;;
71572;SDS011;59408;51.032;9.410;2023-02-16T12:31:42;33.07;;;13.73;;
71572;SDS011;59408;51.032;9.410;2023-02-16T12:34:36;30.13;;;13.85;;
71572;SDS011;59408;51.032;9.410;2023-02-16T12:37:16;29.20;;;13.93;;
71572;SDS011;59408;51.032;9.410;2023-02-16T12:39:53;26.30;;;12.95;;
71572;SDS011;59408;51.032;9.410;2023-02-16T12:42:36;31.70;;;14.43;;
71572;SDS011;59408;51.032;9.410;2023-02-16T12:45:18;31.17;;;14.53;;
71572;SDS011;59408;51.032;9.410;2023-02-16T12:47:48;30.45;;;13.98;;
71572;SDS011;59408;51.032;9.410;2023-02-16T12:50:26;28.80;;;15.15;;
71572;SDS011;59408;51.032;9.410;2023-02-16T12:52:55;34.33;;;14.75;;
71572;SDS011;59408;51.032;9.410;2023-02-16T12:55:25;31.58;;;14.60;;
71572;SDS011;59408;51.032;9.410;2023-02-16T12:57:59;28.13;;;13.63;;
71572;SDS011;59408;51.032;9.410;2023-02-16T13:00:38;32.63;;;14.85;;
71572;SDS011;59408;51.032;9.410;2023-02-16T13:03:14;31.40;;;14.70;;
71572;SDS011;59408;51.032;9.410;2023-02-16T13:05:48;30.65;;;14.10;;
71572;SDS011;59408;51.032;9.410;2023-02-16T13:08:21;31.52;;;14.80;;
71572;SDS011;59408;51.032;9.410;2023-02-16T13:10:55;32.20;;;15.20;;
71572;SDS011;59408;51.032;9.410;2023-02-16T13:13:30;31.83;;;14.77;;
71572;SDS011;59408;51.032;9.410;2023-02-16T13:16:00;28.67;;;14.15;;
71572;SDS011;59408;51.032;9.410;2023-02-16T13:18:45;30.42;;;15.07;;
71572;SDS011;59408;51.032;9.410;2023-02-16T13:21:31;31.52;;;15.18;;
71572;SDS011;59408;51.032;9.410;2023-02-16T13:24:17;33.13;;;14.80;;
71572;SDS011;59408;51.032;9.410;2023-02-16T13:26:59;32.10;;;16.30;;
71572;SDS011;59408;51.032;9.410;2023-02-16T13:29:49;29.25;;;14.73;;
71572;SDS011;59408;51.032;9.410;2023-02-16T13:32:30;31.75;;;15.73;;
71572;SDS011;59408;51.032;9.410;2023-02-16T13:35:11;34.58;;;15.55;;
71572;SDS011;59408;51.032;9.410;2023-02-16T13:37:58;33.70;;;15.40;;
71572;SDS011;59408;51.032;9.410;2023-02-16T13:43:38;32.45;;;14.93;;
71572;SDS011;59408;51.032;9.410;2023-02-16T13:46:10;34.88;;;15.98;;
71572;SDS011;59408;51.032;9.410;2023-02-16T13:48:44;36.40;;;15.65;;
71572;SDS011;59408;51.032;9.410;2023-02-16T13:51:13;34.93;;;15.17;;
71572;SDS011;59408;51.032;9.410;2023-02-16T13:53:49;33.65;;;15.43;;
71572;SDS011;59408;51.032;9.410;2023-02-16T13:56:20;34.58;;;16.05;;
71572;SDS011;59408;51.032;9.410;2023-02-16T13:58:58;37.10;;;16.27;;
71572;SDS011;59408;51.032;9.410;2023-02-16T14:01:46;32.67;;;15.73;;
71572;SDS011;59408;51.032;9.410;2023-02-16T14:07:20;30.13;;;14.98;;
71572;SDS011;59408;51.032;9.410;2023-02-16T14:09:56;37.55;;;16.48;;
71572;SDS011;59408;51.032;9.410;2023-02-16T14:12:24;36.08;;;17.30;;
71572;SDS011;59408;51.032;9.410;2023-02-16T14:14:55;38.78;;;18.02;;
71572;SDS011;59408;51.032;9.410;2023-02-16T14:17:29;36.70;;;17.07;;
71572;SDS011;59408;51.032;9.410;2023-02-16T14:19:59;34.78;;;15.85;;
71572;SDS011;59408;51.032;9.410;2023-02-16T14:22:31;36.92;;;17.00;;
71572;SDS011;59408;51.032;9.410;2023-02-16T14:25:03;35.85;;;15.52;;
71572;SDS011;59408;51.032;9.410;2023-02-16T14:27:48;36.03;;;16.80;;
71572;SDS011;59408;51.032;9.410;2023-02-16T14:30:21;40.70;;;18.10;;
71572;SDS011;59408;51.032;9.410;2023-02-16T14:32:55;39.38;;;17.15;;
71572;SDS011;59408;51.032;9.410;2023-02-16T14:35:27;35.17;;;15.88;;
71572;SDS011;59408;51.032;9.410;2023-02-16T14:37:56;39.67;;;17.75;;
71572;SDS011;59408;51.032;9.410;2023-02-16T14:40:41;36.83;;;17.02;;
71572;SDS011;59408;51.032;9.410;2023-02-16T14:46:01;38.78;;;17.35;;
71572;SDS011;59408;51.032;9.410;2023-02-16T14:48:55;38.60;;;17.48;;
71572;SDS011;59408;51.032;9.410;2023-02-16T14:52:10;40.70;;;18.27;;
71572;SDS011;59408;51.032;9.410;2023-02-16T14:58:03;39.37;;;17.00;;